createdAt,value
2019-02-20T00:02:19.231Z,100153.55
2019-02-20T00:04:45.567Z,100155.37
2019-02-20T00:07:12.156Z,100162.22
2019-02-20T00:09:38.476Z,100167.52
2019-02-20T00:12:05.146Z,100167.14
2019-02-20T00:14:31.470Z,100173.36
2019-02-20T00:16:57.804Z,100169.84
2019-02-20T00:19:24.144Z,100173.14
2019-02-20T00:21:50.448Z,100173.63
2019-02-20T00:24:16.801Z,100172.52
2019-02-20T00:26:43.133Z,100179.89
2019-02-20T00:29:09.483Z,100183.88
2019-02-20T00:31:35.790Z,100188.52
2019-02-20T00:34:02.412Z,100183.42
2019-02-20T00:36:28.778Z,100188.12
2019-02-20T00:38:55.124Z,100188.39
2019-02-20T00:41:21.435Z,100188.70
2019-02-20T00:43:49.660Z,100189.36
2019-02-20T00:46:17.891Z,100189.89
2019-02-20T00:48:48.751Z,100187.63
2019-02-20T00:51:17.208Z,100191.99
2019-02-20T00:53:46.417Z,100185.55
2019-02-20T00:56:13.994Z,100200.22
2019-02-20T00:58:40.303Z,100198.28
2019-02-20T01:01:06.641Z,100194.77
2019-02-20T01:03:32.988Z,100201.40
2019-02-20T01:05:59.325Z,100200.89
2019-02-20T01:08:25.672Z,100204.67
2019-02-20T01:10:52.270Z,100209.77
2019-02-20T01:13:18.911Z,100202.42
2019-02-20T01:15:45.478Z,100202.67
2019-02-20T01:18:11.843Z,100195.58
2019-02-20T01:20:39.470Z,100194.92
2019-02-20T01:23:06.055Z,100190.74
2019-02-20T01:25:32.376Z,100181.25
2019-02-20T01:27:58.966Z,100182.94
2019-02-20T01:30:25.549Z,100181.38
2019-02-20T01:32:51.871Z,100173.82
2019-02-20T01:35:18.230Z,100182.17
2019-02-20T01:37:44.822Z,100180.20
2019-02-20T01:40:11.153Z,100170.07
2019-02-20T01:42:37.465Z,100175.77
2019-02-20T01:45:05.927Z,100178.52
2019-02-20T01:47:32.269Z,100178.58
2019-02-20T01:49:58.867Z,100176.55
2019-02-20T01:52:25.467Z,100177.77
2019-02-20T01:54:51.995Z,100175.09
2019-02-20T01:57:18.608Z,100172.88
2019-02-20T01:59:45.023Z,100173.13
2019-02-20T02:02:11.350Z,100173.89
2019-02-20T02:04:37.948Z,100178.25
2019-02-20T02:07:04.259Z,100175.52
2019-02-20T02:09:30.565Z,100175.80
2019-02-20T02:11:57.138Z,100173.27
2019-02-20T02:14:23.517Z,100172.42
2019-02-20T02:16:50.106Z,100167.54
2019-02-20T02:19:16.798Z,100173.34
2019-02-20T02:21:43.110Z,100168.52
2019-02-20T02:24:09.708Z,100175.87
2019-02-20T02:26:36.029Z,100178.93
2019-02-20T02:29:02.638Z,100178.30
2019-02-20T02:31:28.956Z,100186.03
2019-02-20T02:33:55.317Z,100187.64
2019-02-20T02:36:21.648Z,100180.47
2019-02-20T02:38:48.208Z,100181.67
2019-02-20T02:41:15.557Z,100177.41
2019-02-20T02:43:42.141Z,100176.85
2019-02-20T02:46:08.779Z,100186.72
2019-02-20T02:48:35.111Z,100189.19
2019-02-20T02:51:01.448Z,100192.87
2019-02-20T02:53:30.762Z,100186.44
2019-02-20T02:55:56.307Z,100193.02
2019-02-20T02:58:22.636Z,100195.61
2019-02-20T03:00:48.942Z,100193.64
2019-02-20T03:03:15.398Z,100197.20
2019-02-20T03:05:42.971Z,100194.45
2019-02-20T03:08:09.286Z,100185.59
2019-02-20T03:10:35.616Z,100187.50
2019-02-20T03:13:01.935Z,100190.10
2019-02-20T03:15:28.277Z,100188.88
2019-02-20T03:17:54.579Z,100191.72
2019-02-20T03:20:20.908Z,100198.74
2019-02-20T03:22:48.299Z,100202.88
2019-02-20T03:25:14.652Z,100206.62
2019-02-20T03:27:41.222Z,100192.77
2019-02-20T03:30:07.858Z,100208.77
2019-02-20T03:32:34.198Z,100204.17
2019-02-20T03:35:00.741Z,100206.47
2019-02-20T03:37:27.065Z,100222.89
2019-02-20T03:39:53.445Z,100201.64
2019-02-20T03:42:20.085Z,100211.06
2019-02-20T03:44:46.678Z,100211.97
2019-02-20T03:47:12.997Z,100218.02
2019-02-20T03:49:39.348Z,100220.78
2019-02-20T03:52:06.021Z,100218.25
2019-02-20T03:54:32.468Z,100223.13
2019-02-20T03:57:00.252Z,100225.58
2019-02-20T03:59:26.825Z,100229.25
2019-02-20T04:01:53.159Z,100221.16
2019-02-20T04:04:19.486Z,100225.75
2019-02-20T04:06:46.064Z,100218.47
2019-02-20T04:09:12.422Z,100217.64
2019-02-20T04:11:38.752Z,100222.89
2019-02-20T04:14:05.106Z,100225.42
2019-02-20T04:16:32.078Z,100228.38
2019-02-20T04:18:58.845Z,100227.89
2019-02-20T04:21:28.164Z,100225.28
2019-02-20T04:24:01.837Z,100225.72
2019-02-20T04:26:22.712Z,100228.64
2019-02-20T04:28:49.121Z,100226.27
2019-02-20T04:31:15.819Z,100229.87
2019-02-20T04:33:42.220Z,100229.02
2019-02-20T04:36:09.891Z,100223.05
2019-02-20T04:38:36.507Z,100229.72
2019-02-20T04:41:02.835Z,100223.25
2019-02-20T04:43:29.541Z,100224.55
2019-02-20T04:45:55.985Z,100221.70
2019-02-20T04:48:22.430Z,100229.78
2019-02-20T04:50:48.747Z,100225.75
2019-02-20T04:53:15.095Z,100223.61
2019-02-20T04:55:41.414Z,100230.11
2019-02-20T04:58:21.461Z,100230.11
2019-02-20T05:00:47.961Z,100233.84
2019-02-20T05:03:14.542Z,100230.17
2019-02-20T05:05:40.848Z,100238.42
2019-02-20T05:08:07.175Z,100236.05
2019-02-20T05:10:33.778Z,100238.27
2019-02-20T05:13:00.130Z,100245.31
2019-02-20T05:15:26.710Z,100241.31
2019-02-20T05:17:53.133Z,100244.86
2019-02-20T05:20:19.759Z,100238.91
2019-02-20T05:22:46.088Z,100234.75
2019-02-20T05:25:12.421Z,100233.98
2019-02-20T05:27:38.759Z,100229.04
2019-02-20T05:30:09.414Z,100239.90
2019-02-20T05:32:35.796Z,100241.88
2019-02-20T05:35:02.209Z,100232.42
2019-02-20T05:37:28.655Z,100236.32
2019-02-20T05:39:54.964Z,100238.31
2019-02-20T05:42:21.307Z,100239.22
2019-02-20T05:44:47.649Z,100243.87
2019-02-20T05:47:14.221Z,100224.27
2019-02-20T05:49:40.612Z,100241.66
2019-02-20T05:52:07.160Z,100245.64
2019-02-20T05:54:35.052Z,100247.64
2019-02-20T05:57:01.704Z,100249.38
2019-02-20T05:59:28.444Z,100251.73
2019-02-20T06:01:54.789Z,100255.49
2019-02-20T06:04:21.402Z,100265.20
2019-02-20T06:06:47.738Z,100267.55
2019-02-20T06:09:14.069Z,100264.96
2019-02-20T06:11:41.252Z,100268.16
2019-02-20T06:14:07.825Z,100286.38
2019-02-20T06:16:34.146Z,100287.93
2019-02-20T06:19:00.672Z,100282.52
2019-02-20T06:21:26.998Z,100290.47
2019-02-20T06:23:53.590Z,100290.99
2019-02-20T06:26:19.903Z,100300.39
2019-02-20T06:28:46.233Z,100299.23
2019-02-20T06:31:12.546Z,100305.41
2019-02-20T06:33:38.928Z,100314.98
2019-02-20T06:36:05.277Z,100320.84
2019-02-20T06:38:31.594Z,100324.42
2019-02-20T06:40:57.912Z,100313.38
2019-02-20T06:43:24.224Z,100324.88
2019-02-20T06:45:50.875Z,100328.85
2019-02-20T06:48:17.204Z,100335.51
2019-02-20T06:50:43.521Z,100335.78
2019-02-20T06:53:09.851Z,100334.42
2019-02-20T06:55:36.422Z,100327.50
2019-02-20T06:58:02.786Z,100338.56
2019-02-20T07:00:29.128Z,100337.72
2019-02-20T07:02:55.700Z,100348.06
2019-02-20T07:05:37.248Z,100349.57
2019-02-20T07:08:29.953Z,100352.02
2019-02-20T07:11:24.398Z,100352.06
2019-02-20T07:14:02.157Z,100356.44
2019-02-20T07:17:07.725Z,100356.82
2019-02-20T07:19:54.404Z,100355.11
2019-02-20T07:22:32.227Z,100368.23
2019-02-20T07:25:15.918Z,100360.59
2019-02-20T07:27:59.865Z,100378.38
2019-02-20T07:30:26.488Z,100371.86
2019-02-20T07:32:53.092Z,100383.21
2019-02-20T07:35:19.670Z,100385.41
2019-02-20T07:37:46.054Z,100390.77
2019-02-20T07:40:12.720Z,100397.36
2019-02-20T07:42:39.351Z,100394.74
2019-02-20T07:45:08.637Z,100388.67
2019-02-20T07:47:35.664Z,100383.39
2019-02-20T07:50:02.686Z,100401.91
2019-02-20T07:52:29.337Z,100403.36
2019-02-20T07:54:56.020Z,100410.05
2019-02-20T07:57:22.377Z,100411.73
2019-02-20T07:59:49.712Z,100414.58
2019-02-20T08:02:16.048Z,100415.50
2019-02-20T08:04:42.440Z,100417.52
2019-02-20T08:07:08.720Z,100416.49
2019-02-20T08:09:35.039Z,100423.33
2019-02-20T08:12:01.362Z,100424.56
2019-02-20T08:14:28.267Z,100433.63
2019-02-20T08:16:54.598Z,100432.67
2019-02-20T08:19:21.948Z,100424.91
2019-02-20T08:21:51.435Z,100432.55
2019-02-20T08:24:18.467Z,100432.52
2019-02-20T08:26:44.774Z,100431.94
2019-02-20T08:29:11.403Z,100441.92
2019-02-20T08:31:38.004Z,100439.66
2019-02-20T08:34:04.360Z,100439.19
2019-02-20T08:36:31.926Z,100447.26
2019-02-20T08:38:58.282Z,100438.80
2019-02-20T08:41:26.123Z,100438.05
2019-02-20T08:43:52.786Z,100440.16
2019-02-20T08:46:19.398Z,100435.08
2019-02-20T08:48:45.907Z,100444.61
2019-02-20T08:51:12.269Z,100441.53
2019-02-20T08:53:38.605Z,100464.23
2019-02-20T08:56:05.312Z,100461.60
2019-02-20T08:58:31.600Z,100464.02
2019-02-20T09:00:58.171Z,100474.06
2019-02-20T09:03:24.817Z,100471.64
2019-02-20T09:05:51.106Z,100466.20
2019-02-20T09:08:17.702Z,100477.77
2019-02-20T09:10:44.008Z,100477.66
2019-02-20T09:13:10.666Z,100477.77
2019-02-20T09:15:36.992Z,100484.25
2019-02-20T09:18:03.367Z,100481.45
2019-02-20T09:20:29.951Z,100489.53
2019-02-20T09:22:56.285Z,100479.41
2019-02-20T09:25:22.874Z,100480.07
2019-02-20T09:27:49.581Z,100485.41
2019-02-20T09:30:16.075Z,100480.15
2019-02-20T09:32:44.888Z,100487.66
2019-02-20T09:35:11.365Z,100477.58
2019-02-20T09:37:38.154Z,100484.27
2019-02-20T09:40:12.813Z,100487.17
2019-02-20T09:42:39.827Z,100491.52
2019-02-20T09:45:07.573Z,100498.16
2019-02-20T09:47:35.127Z,100494.44
2019-02-20T09:50:05.503Z,100500.63
2019-02-20T09:52:32.657Z,100499.37
2019-02-20T09:54:58.978Z,100504.09
2019-02-20T09:57:25.324Z,100508.09
2019-02-20T09:59:51.955Z,100488.37
2019-02-20T10:02:18.298Z,100488.75
2019-02-20T10:04:44.909Z,100493.09
2019-02-20T10:07:11.259Z,100494.36
2019-02-20T10:09:37.600Z,100491.52
2019-02-20T10:12:04.203Z,100484.43
2019-02-20T10:14:30.878Z,100488.66
2019-02-20T10:17:00.851Z,100491.78
2019-02-20T10:19:27.976Z,100491.91
2019-02-20T10:21:57.067Z,100490.14
2019-02-20T10:24:23.686Z,100487.12
2019-02-20T10:26:50.047Z,100495.84
2019-02-20T10:29:16.735Z,100492.84
2019-02-20T10:31:43.381Z,100482.07
2019-02-20T10:34:11.197Z,100476.56
2019-02-20T10:36:37.682Z,100486.54
2019-02-20T10:39:04.994Z,100487.69
2019-02-20T10:41:32.926Z,100492.55
2019-02-20T10:43:59.283Z,100491.63
2019-02-20T10:46:25.900Z,100488.29
2019-02-20T10:48:52.263Z,100484.22
2019-02-20T10:51:19.955Z,100489.03
2019-02-20T10:53:46.275Z,100493.92
2019-02-20T10:56:12.615Z,100485.87
2019-02-20T10:58:38.992Z,100478.94
2019-02-20T11:01:06.454Z,100474.42
2019-02-20T11:03:32.847Z,100474.34
2019-02-20T11:05:59.176Z,100478.48
2019-02-20T11:08:25.801Z,100488.00
2019-02-20T11:10:52.388Z,100487.19
2019-02-20T11:13:21.617Z,100489.62
2019-02-20T11:15:47.977Z,100486.81
2019-02-20T11:18:14.382Z,100490.47
2019-02-20T11:20:48.303Z,100500.52
2019-02-20T11:23:09.205Z,100494.41
2019-02-20T11:25:35.836Z,100497.78
2019-02-20T11:28:02.145Z,100496.71
2019-02-20T11:30:28.765Z,100497.92
2019-02-20T11:32:55.132Z,100497.51
2019-02-20T11:35:21.479Z,100499.44
2019-02-20T11:37:48.130Z,100486.99
2019-02-20T11:40:14.500Z,100482.26
2019-02-20T11:42:41.896Z,100486.83
2019-02-20T11:45:11.618Z,100488.36
2019-02-20T11:47:38.010Z,100486.14
2019-02-20T11:50:07.931Z,100484.19
2019-02-20T11:52:38.453Z,100481.22
2019-02-20T11:55:05.793Z,100466.57
2019-02-20T11:57:32.390Z,100472.09
2019-02-20T11:59:58.735Z,100466.11
2019-02-20T12:02:25.495Z,100464.25
2019-02-20T12:04:51.882Z,100465.38
2019-02-20T12:07:18.472Z,100482.66
2019-02-20T12:09:45.400Z,100474.70
2019-02-20T12:12:11.928Z,100482.11
2019-02-20T12:14:38.626Z,100477.52
2019-02-20T12:17:04.992Z,100478.94
2019-02-20T12:19:31.484Z,100466.71
2019-02-20T12:21:57.825Z,100475.63
2019-02-20T12:24:24.487Z,100473.22
2019-02-20T12:26:50.828Z,100481.66
2019-02-20T12:29:17.160Z,100487.59
2019-02-20T12:31:52.129Z,100481.59
2019-02-20T12:34:12.065Z,100483.70
2019-02-20T12:36:38.651Z,100489.66
2019-02-20T12:39:05.342Z,100489.81
2019-02-20T12:41:36.565Z,100487.63
2019-02-20T12:44:03.311Z,100484.36
2019-02-20T12:46:29.934Z,100479.46
2019-02-20T12:48:56.227Z,100489.59
2019-02-20T12:51:22.849Z,100485.80
2019-02-20T12:53:49.160Z,100482.61
2019-02-20T12:56:15.540Z,100485.58
2019-02-20T12:58:41.933Z,100487.28
2019-02-20T13:01:08.578Z,100479.31
2019-02-20T13:03:34.882Z,100482.42
2019-02-20T13:06:01.275Z,100484.34
2019-02-20T13:08:28.049Z,100485.95
2019-02-20T13:10:54.465Z,100481.20
2019-02-20T13:13:20.808Z,100476.35
2019-02-20T13:15:47.501Z,100491.73
2019-02-20T13:18:14.268Z,100481.11
2019-02-20T13:20:40.837Z,100466.70
2019-02-20T13:23:07.152Z,100484.82
2019-02-20T13:25:33.767Z,100480.91
2019-02-20T13:28:00.100Z,100476.36
2019-02-20T13:30:26.692Z,100462.88
2019-02-20T13:32:53.278Z,100480.06
2019-02-20T13:35:19.625Z,100479.04
2019-02-20T13:37:46.538Z,100487.99
2019-02-20T13:40:13.145Z,100493.77
2019-02-20T13:42:39.480Z,100478.33
2019-02-20T13:45:07.672Z,100493.20
2019-02-20T13:47:34.027Z,100481.81
2019-02-20T13:50:00.380Z,100483.49
2019-02-20T13:52:26.790Z,100488.50
2019-02-20T13:54:53.391Z,100480.43
2019-02-20T13:57:19.934Z,100476.70
2019-02-20T13:59:46.256Z,100485.55
2019-02-20T14:02:12.567Z,100483.47
2019-02-20T14:04:39.176Z,100490.20
2019-02-20T14:07:05.499Z,100495.72
2019-02-20T14:09:31.847Z,100500.91
2019-02-20T14:11:58.525Z,100494.89
2019-02-20T14:14:25.089Z,100489.30
2019-02-20T14:16:51.988Z,100492.92
2019-02-20T14:19:18.583Z,100493.76
2019-02-20T14:21:44.976Z,100493.12
2019-02-20T14:24:11.603Z,100498.88
2019-02-20T14:26:38.275Z,100495.78
2019-02-20T14:29:04.615Z,100499.16
2019-02-20T14:31:30.995Z,100500.98
2019-02-20T14:33:57.597Z,100498.20
2019-02-20T14:36:25.992Z,100497.72
2019-02-20T14:38:52.303Z,100488.39
2019-02-20T14:41:18.642Z,100492.34
2019-02-20T14:43:44.938Z,100488.50
2019-02-20T14:46:11.348Z,100488.18
2019-02-20T14:48:37.646Z,100487.42
2019-02-20T14:51:03.993Z,100483.95
2019-02-20T14:53:30.321Z,100486.78
2019-02-20T14:55:56.966Z,100487.67
2019-02-20T14:58:23.568Z,100484.20
2019-02-20T15:00:49.903Z,100471.03
2019-02-20T15:03:16.355Z,100484.40
2019-02-20T15:05:42.974Z,100481.55
2019-02-20T15:08:09.768Z,100482.14
2019-02-20T15:10:36.195Z,100493.00
2019-02-20T15:13:02.500Z,100480.72
2019-02-20T15:15:29.102Z,100490.03
2019-02-20T15:17:55.713Z,100487.78
2019-02-20T15:20:22.058Z,100499.75
2019-02-20T15:22:48.400Z,100498.78
2019-02-20T15:25:14.802Z,100500.55
2019-02-20T15:27:41.128Z,100497.84
2019-02-20T15:30:13.877Z,100506.02
2019-02-20T15:32:40.248Z,100495.19
2019-02-20T15:35:07.016Z,100505.41
2019-02-20T15:37:33.969Z,100510.03
2019-02-20T15:40:00.599Z,100503.09
2019-02-20T15:42:26.912Z,100512.45
2019-02-20T15:44:53.259Z,100510.08
2019-02-20T15:47:19.860Z,100518.98
2019-02-20T15:49:46.164Z,100523.25
2019-02-20T15:52:12.476Z,100525.53
2019-02-20T15:54:38.802Z,100527.84
2019-02-20T15:57:05.763Z,100523.01
2019-02-20T15:59:32.123Z,100526.72
2019-02-20T16:01:58.467Z,100529.24
2019-02-20T16:04:24.787Z,100532.95
2019-02-20T16:06:51.159Z,100533.27
2019-02-20T16:09:17.756Z,100535.87
2019-02-20T16:11:44.150Z,100528.27
2019-02-20T16:14:10.472Z,100532.83
2019-02-20T16:16:36.794Z,100538.55
2019-02-20T16:19:03.791Z,100534.94
2019-02-20T16:21:30.381Z,100538.48
2019-02-20T16:23:56.743Z,100544.08
2019-02-20T16:26:23.398Z,100536.56
2019-02-20T16:28:50.022Z,100545.05
2019-02-20T16:31:16.338Z,100541.23
2019-02-20T16:33:42.955Z,100545.66
2019-02-20T16:36:09.514Z,100545.55
2019-02-20T16:38:36.215Z,100549.30
2019-02-20T16:41:04.639Z,100548.28
2019-02-20T16:43:31.524Z,100504.38
2019-02-20T16:45:58.081Z,100549.78
2019-02-20T16:48:24.413Z,100555.95
2019-02-20T16:50:50.969Z,100549.05
2019-02-20T16:53:17.706Z,100551.47
2019-02-20T16:55:44.299Z,100554.84
2019-02-20T16:58:10.642Z,100554.84
2019-02-20T17:00:37.839Z,100555.89
2019-02-20T17:03:04.255Z,100558.89
2019-02-20T17:05:30.919Z,100567.95
2019-02-20T17:07:57.220Z,100571.92
2019-02-20T17:10:23.866Z,100568.43
2019-02-20T17:12:50.230Z,100570.77
2019-02-20T17:15:16.686Z,100571.77
2019-02-20T17:17:43.555Z,100572.06
2019-02-20T17:20:17.723Z,100578.08
2019-02-20T17:22:44.370Z,100579.42
2019-02-20T17:25:11.975Z,100579.11
2019-02-20T17:27:38.832Z,100575.92
2019-02-20T17:30:12.289Z,100578.92
2019-02-20T17:32:38.865Z,100581.95
2019-02-20T17:35:08.325Z,100584.17
2019-02-20T17:37:35.891Z,100581.37
2019-02-20T17:40:05.293Z,100582.33
2019-02-20T17:42:31.651Z,100591.94
2019-02-20T17:44:58.324Z,100581.91
2019-02-20T17:47:25.037Z,100593.56
2019-02-20T17:49:52.648Z,100598.25
2019-02-20T17:52:19.204Z,100606.41
2019-02-20T17:54:45.671Z,100608.82
2019-02-20T17:57:12.025Z,100612.44
2019-02-20T17:59:38.668Z,100615.97
2019-02-20T18:02:05.108Z,100619.02
2019-02-20T18:04:31.444Z,100620.13
2019-02-20T18:06:57.761Z,100624.01
2019-02-20T18:09:24.103Z,100624.90
2019-02-20T18:11:50.519Z,100623.16
2019-02-20T18:14:17.070Z,100629.81
2019-02-20T18:16:43.647Z,100627.97
2019-02-20T18:19:09.981Z,100627.92
2019-02-20T18:21:36.646Z,100626.66
2019-02-20T18:24:03.219Z,100619.62
2019-02-20T18:26:29.656Z,100627.00
2019-02-20T18:28:56.368Z,100625.23
2019-02-20T18:31:23.000Z,100629.01
2019-02-20T18:33:49.778Z,100622.30
2019-02-20T18:36:18.290Z,100629.18
2019-02-20T18:38:44.653Z,100627.38
2019-02-20T18:41:11.018Z,100628.15
2019-02-20T18:43:38.207Z,100626.87
2019-02-20T18:46:04.592Z,100633.59
2019-02-20T18:48:31.058Z,100636.05
2019-02-20T18:50:57.425Z,100637.61
2019-02-20T18:53:23.757Z,100633.95
2019-02-20T18:55:50.089Z,100636.48
2019-02-20T18:58:18.874Z,100640.95
2019-02-20T19:00:45.183Z,100643.70
2019-02-20T19:03:11.619Z,100639.33
2019-02-20T19:05:38.297Z,100640.76
2019-02-20T19:08:36.596Z,100641.79
2019-02-20T19:11:29.387Z,100642.08
2019-02-20T19:14:10.472Z,100642.24
2019-02-20T19:16:52.275Z,100653.28
2019-02-20T19:19:59.427Z,100649.26
2019-02-20T19:22:55.247Z,100659.21
2019-02-20T19:25:45.234Z,100657.91
2019-02-20T19:28:53.303Z,100651.55
2019-02-20T19:31:37.490Z,100663.08
2019-02-20T19:34:40.058Z,100663.72
2019-02-20T19:37:26.184Z,100663.66
2019-02-20T19:39:58.519Z,100666.61
2019-02-20T19:42:46.206Z,100667.84
2019-02-20T19:45:38.872Z,100675.01
2019-02-20T19:48:23.235Z,100668.49
2019-02-20T19:51:10.233Z,100677.07
2019-02-20T19:53:48.537Z,100675.69
2019-02-20T19:56:26.424Z,100671.91
2019-02-20T19:59:22.592Z,100672.98
2019-02-20T20:02:11.339Z,100666.07
2019-02-20T20:05:15.059Z,100666.14
2019-02-20T20:08:11.157Z,100671.11
2019-02-20T20:11:20.541Z,100660.55
2019-02-20T20:14:04.210Z,100663.74
2019-02-20T20:17:09.631Z,100671.89
2019-02-20T20:20:12.291Z,100679.09
2019-02-20T20:22:50.558Z,100668.05
2019-02-20T20:25:45.675Z,100673.52
2019-02-20T20:28:23.696Z,100676.69
2019-02-20T20:31:01.888Z,100674.66
2019-02-20T20:33:49.428Z,100676.14
2019-02-20T20:36:44.497Z,100676.20
2019-02-20T20:39:53.222Z,100675.11
2019-02-20T20:42:44.710Z,100681.58
2019-02-20T20:45:28.528Z,100677.23
2019-02-20T20:48:16.020Z,100673.20
2019-02-20T20:51:27.465Z,100672.22
2019-02-20T20:54:30.368Z,100666.09
2019-02-20T20:57:19.887Z,100672.33
2019-02-20T21:00:43.191Z,100667.64
2019-02-20T21:03:15.256Z,100667.04
2019-02-20T21:06:01.986Z,100661.67
2019-02-20T21:08:43.442Z,100661.53
2019-02-20T21:11:18.429Z,100663.20
2019-02-20T21:14:11.317Z,100665.80
2019-02-20T21:16:49.040Z,100662.73
2019-02-20T21:19:33.644Z,100662.73
2019-02-20T21:22:51.709Z,100661.75
2019-02-20T21:25:51.274Z,100664.19
2019-02-20T21:28:48.499Z,100661.05
2019-02-20T21:31:53.991Z,100662.10
2019-02-20T21:34:44.397Z,100665.73
2019-02-20T21:37:34.463Z,100663.89
2019-02-20T21:40:27.643Z,100663.97
2019-02-20T21:43:19.100Z,100664.49
2019-02-20T21:46:20.130Z,100667.48
2019-02-20T21:49:21.862Z,100663.88
2019-02-20T21:52:19.272Z,100669.70
2019-02-20T21:55:22.556Z,100663.97
2019-02-20T21:58:04.783Z,100667.27
2019-02-20T22:00:42.616Z,100666.25
2019-02-20T22:03:43.772Z,100658.58
2019-02-20T22:06:18.789Z,100665.56
2019-02-20T22:09:26.457Z,100668.48
2019-02-20T22:12:31.711Z,100666.05
2019-02-20T22:15:20.207Z,100664.50
2019-02-20T22:18:10.256Z,100669.66
2019-02-20T22:21:14.427Z,100670.42
2019-02-20T22:23:52.285Z,100672.33
2019-02-20T22:26:30.271Z,100672.22
2019-02-20T22:29:11.170Z,100668.76
2019-02-20T22:32:14.245Z,100676.35
2019-02-20T22:35:15.589Z,100678.43
2019-02-20T22:38:17.804Z,100676.48
2019-02-20T22:40:53.094Z,100679.88
2019-02-20T22:43:59.315Z,100678.63
2019-02-20T22:46:49.832Z,100678.70
2019-02-20T22:49:46.111Z,100670.20
2019-02-20T22:52:21.219Z,100670.34
2019-02-20T22:55:08.127Z,100671.44
2019-02-20T22:57:42.924Z,100673.53
2019-02-20T23:00:52.084Z,100676.20
2019-02-20T23:03:46.961Z,100672.89
2019-02-20T23:06:48.976Z,100667.64
2019-02-20T23:09:38.668Z,100672.09
2019-02-20T23:12:48.473Z,100669.19
2019-02-20T23:15:14.885Z,100671.48
2019-02-20T23:17:41.705Z,100675.05
2019-02-20T23:20:08.037Z,100672.93
2019-02-20T23:22:34.675Z,100677.02
2019-02-20T23:25:01.005Z,100677.94
2019-02-20T23:27:27.409Z,100679.38
2019-02-20T23:29:53.758Z,100682.86
2019-02-20T23:32:20.187Z,100682.47
2019-02-20T23:34:46.833Z,100690.69
2019-02-20T23:37:13.197Z,100688.14
2019-02-20T23:39:39.661Z,100686.12
2019-02-20T23:42:06.230Z,100691.58
2019-02-20T23:44:32.644Z,100689.58
2019-02-20T23:46:59.256Z,100690.30
2019-02-20T23:49:25.666Z,100695.41
2019-02-20T23:51:52.224Z,100692.66
2019-02-20T23:54:18.578Z,100693.20
2019-02-20T23:56:45.227Z,100694.34
2019-02-20T23:59:13.790Z,100699.34
